createdAt,value
2019-04-14T00:01:02.201Z,9.00
2019-04-14T00:03:54.991Z,9.00
2019-04-14T00:06:28.750Z,8.90
2019-04-14T00:08:59.555Z,8.90
2019-04-14T00:11:32.269Z,8.90
2019-04-14T00:14:03.177Z,8.90
2019-04-14T00:16:40.171Z,8.90
2019-04-14T00:19:11.203Z,8.90
2019-04-14T00:21:43.201Z,9.00
2019-04-14T00:24:14.637Z,9.00
2019-04-14T00:26:48.690Z,9.10
2019-04-14T00:29:21.773Z,9.20
2019-04-14T00:31:54.196Z,9.20
2019-04-14T00:34:57.098Z,9.40
2019-04-14T00:37:53.390Z,9.40
2019-04-14T00:40:33.017Z,9.60
2019-04-14T00:43:20.010Z,9.30
2019-04-14T00:46:00.995Z,9.40
2019-04-14T00:48:32.506Z,9.20
2019-04-14T00:51:07.578Z,9.30
2019-04-14T00:53:38.503Z,9.20
2019-04-14T00:56:10.467Z,9.30
2019-04-14T00:58:41.692Z,9.30
2019-04-14T01:01:13.326Z,9.10
2019-04-14T01:03:48.219Z,9.10
2019-04-14T01:06:20.694Z,9.10
2019-04-14T01:08:53.303Z,9.20
2019-04-14T01:11:24.895Z,9.30
2019-04-14T01:13:57.114Z,9.30
2019-04-14T01:16:28.205Z,9.30
2019-04-14T01:18:58.941Z,9.40
2019-04-14T01:21:30.716Z,9.40
2019-04-14T01:24:03.868Z,9.50
2019-04-14T01:26:35.646Z,9.50
2019-04-14T01:29:06.392Z,9.50
2019-04-14T01:31:38.224Z,9.80
2019-04-14T01:34:10.785Z,9.80
2019-04-14T01:36:43.101Z,9.80
2019-04-14T01:39:15.447Z,10.00
2019-04-14T01:41:48.371Z,10.10
2019-04-14T01:44:22.164Z,10.00
2019-04-14T01:46:54.161Z,9.90
2019-04-14T01:49:25.076Z,9.80
2019-04-14T01:52:18.625Z,9.50
2019-04-14T01:55:07.450Z,9.50
2019-04-14T01:57:48.313Z,9.30
2019-04-14T02:00:26.931Z,9.10
2019-04-14T02:02:58.306Z,8.90
2019-04-14T02:05:29.974Z,8.90
2019-04-14T02:08:05.176Z,9.00
2019-04-14T02:10:36.883Z,9.20
2019-04-14T02:13:09.201Z,9.40
2019-04-14T02:15:40.234Z,9.50
2019-04-14T02:18:12.000Z,9.60
2019-04-14T02:20:44.715Z,9.70
2019-04-14T02:23:17.079Z,9.80
2019-04-14T02:25:49.412Z,10.00
2019-04-14T02:28:20.396Z,10.00
2019-04-14T02:31:00.151Z,9.90
2019-04-14T02:38:55.308Z,9.50
2019-04-14T02:41:50.809Z,9.50
2019-04-14T02:44:04.648Z,9.40
2019-04-14T02:46:39.919Z,9.00
2019-04-14T02:49:04.574Z,9.30
2019-04-14T02:54:11.807Z,9.30
2019-04-14T02:56:46.190Z,9.20
2019-04-14T02:59:39.134Z,9.30
2019-04-14T03:02:09.694Z,9.40
2019-04-14T03:06:55.011Z,9.40
2019-04-14T03:12:06.327Z,9.60
2019-04-14T03:14:45.143Z,9.70
2019-04-14T03:17:29.230Z,9.80
2019-04-14T03:20:22.484Z,9.80
2019-04-14T03:22:51.705Z,9.70
2019-04-14T03:25:41.475Z,9.70
2019-04-14T03:28:36.633Z,9.70
2019-04-14T03:31:34.549Z,9.70
2019-04-14T03:34:06.250Z,9.80
2019-04-14T03:43:48.273Z,9.80
2019-04-14T03:46:45.223Z,9.80
2019-04-14T03:48:58.685Z,9.80
2019-04-14T03:51:40.591Z,9.90
2019-04-14T03:53:57.585Z,9.90
2019-04-14T03:56:49.019Z,9.90
2019-04-14T03:59:21.655Z,10.00
2019-04-14T04:01:54.429Z,10.00
2019-04-14T04:04:25.769Z,9.90
2019-04-14T04:06:57.490Z,9.90
2019-04-14T04:10:05.765Z,9.80
2019-04-14T04:12:38.008Z,9.80
2019-04-14T04:15:10.381Z,9.80
2019-04-14T04:18:19.800Z,9.70
2019-04-14T04:21:31.032Z,9.80
2019-04-14T04:24:12.781Z,9.80
2019-04-14T04:26:49.845Z,10.00
2019-04-14T04:29:27.340Z,9.70
2019-04-14T04:32:12.397Z,9.70
2019-04-14T04:35:13.090Z,9.70
2019-04-14T04:38:01.447Z,9.70
2019-04-14T04:40:33.344Z,9.60
2019-04-14T04:43:05.768Z,9.60
2019-04-14T04:45:36.656Z,9.60
2019-04-14T04:48:08.772Z,9.60
2019-04-14T04:50:40.924Z,9.60
2019-04-14T04:53:11.909Z,9.50
2019-04-14T04:55:43.892Z,9.70
2019-04-14T04:58:17.381Z,9.80
2019-04-14T05:00:51.001Z,9.90
2019-04-14T05:03:21.323Z,10.00
2019-04-14T05:06:30.981Z,10.10
2019-04-14T05:09:16.752Z,10.10
2019-04-14T05:12:06.721Z,9.80
2019-04-14T05:14:47.943Z,9.90
2019-04-14T05:17:19.282Z,9.80
2019-04-14T05:19:50.243Z,9.90
2019-04-14T05:22:24.749Z,10.00
2019-04-14T05:24:57.180Z,9.90
2019-04-14T05:27:31.969Z,9.90
2019-04-14T05:30:02.903Z,10.00
2019-04-14T05:32:34.715Z,10.10
2019-04-14T05:35:07.456Z,10.00
2019-04-14T05:37:39.956Z,9.90
2019-04-14T05:40:12.394Z,9.80
2019-04-14T05:42:44.911Z,9.90
2019-04-14T05:45:17.559Z,10.00
2019-04-14T05:47:50.014Z,10.20
2019-04-14T05:50:22.613Z,10.20
2019-04-14T05:52:59.956Z,10.30
2019-04-14T05:55:31.187Z,10.40
2019-04-14T05:58:03.599Z,10.60
2019-04-14T06:00:36.372Z,10.50
2019-04-14T06:03:10.310Z,10.30
2019-04-14T06:05:45.048Z,10.20
2019-04-14T06:08:19.224Z,10.10
2019-04-14T06:10:50.794Z,10.10
2019-04-14T06:13:21.969Z,10.00
2019-04-14T06:15:53.018Z,10.10
2019-04-14T06:18:23.834Z,10.10
2019-04-14T06:20:54.884Z,10.20
2019-04-14T06:23:27.758Z,10.30
2019-04-14T06:25:59.133Z,10.40
2019-04-14T06:28:30.026Z,10.60
2019-04-14T06:31:23.219Z,10.50
2019-04-14T06:34:17.065Z,10.50
2019-04-14T06:37:13.138Z,10.60
2019-04-14T06:39:46.782Z,10.80
2019-04-14T06:42:18.559Z,10.50
2019-04-14T06:44:49.899Z,10.60
2019-04-14T06:47:20.843Z,10.60
2019-04-14T06:49:51.792Z,10.80
2019-04-14T06:52:22.773Z,11.10
2019-04-14T06:54:53.869Z,10.80
2019-04-14T06:57:29.871Z,11.00
2019-04-14T07:00:01.167Z,10.90
2019-04-14T07:02:31.846Z,10.90
2019-04-14T07:05:02.695Z,10.80
2019-04-14T07:07:33.625Z,10.70
2019-04-14T07:10:04.417Z,10.70
2019-04-14T07:12:37.035Z,10.60
2019-04-14T07:15:08.344Z,10.60
2019-04-14T07:17:49.779Z,10.70
2019-04-14T07:20:22.947Z,10.80
2019-04-14T07:22:54.833Z,10.80
2019-04-14T07:25:25.851Z,10.90
2019-04-14T07:27:57.735Z,11.10
2019-04-14T07:30:51.429Z,11.20
2019-04-14T07:33:54.865Z,11.20
2019-04-14T07:36:36.742Z,11.10
2019-04-14T07:39:26.771Z,11.10
2019-04-14T07:42:06.808Z,10.90
2019-04-14T07:45:15.972Z,10.90
2019-04-14T07:48:00.240Z,10.90
2019-04-14T07:50:56.523Z,10.90
2019-04-14T07:53:47.804Z,10.90
2019-04-14T07:56:47.026Z,11.00
2019-04-14T07:59:33.546Z,11.00
2019-04-14T08:02:19.160Z,11.00
2019-04-14T08:04:58.605Z,11.00
2019-04-14T08:07:31.311Z,11.10
2019-04-14T08:10:02.249Z,11.00
2019-04-14T08:12:36.540Z,11.00
2019-04-14T08:15:09.222Z,10.90
2019-04-14T08:17:43.597Z,10.80
2019-04-14T08:20:26.469Z,10.80
2019-04-14T08:22:47.651Z,11.00
2019-04-14T08:25:24.850Z,11.30
2019-04-14T08:28:05.454Z,11.60
2019-04-14T08:30:37.751Z,11.70
2019-04-14T08:33:09.491Z,11.70
2019-04-14T08:35:40.409Z,11.80
2019-04-14T08:38:16.125Z,11.90
2019-04-14T08:40:48.262Z,12.00
2019-04-14T08:43:26.580Z,12.20
2019-04-14T08:46:06.158Z,12.30
2019-04-14T08:48:47.137Z,12.10
2019-04-14T08:51:49.144Z,12.20
2019-04-14T08:54:41.255Z,12.10
2019-04-14T08:57:37.153Z,12.10
2019-04-14T09:00:41.433Z,12.20
2019-04-14T09:03:31.444Z,12.20
2019-04-14T09:06:14.135Z,12.20
2019-04-14T09:08:55.495Z,12.00
2019-04-14T09:11:33.966Z,12.00
2019-04-14T09:14:07.015Z,12.10
2019-04-14T09:16:39.431Z,12.20
2019-04-14T09:19:10.394Z,12.30
2019-04-14T09:21:41.537Z,12.40
2019-04-14T09:24:12.899Z,12.50
2019-04-14T09:26:46.756Z,12.70
2019-04-14T09:29:18.106Z,12.70
2019-04-14T09:31:49.017Z,13.00
2019-04-14T09:34:20.711Z,13.20
2019-04-14T09:36:54.381Z,13.30
2019-04-14T09:39:30.945Z,13.50
2019-04-14T09:42:11.574Z,13.60
2019-04-14T09:44:49.865Z,13.70
2019-04-14T09:47:21.262Z,13.50
2019-04-14T09:49:52.672Z,13.60
2019-04-14T09:52:23.674Z,13.90
2019-04-14T09:54:54.982Z,14.00
2019-04-14T09:57:25.875Z,13.60
2019-04-14T09:59:57.063Z,13.40
2019-04-14T10:02:28.201Z,13.60
2019-04-14T10:05:01.416Z,13.60
2019-04-14T10:07:32.243Z,13.70
2019-04-14T10:10:04.289Z,13.90
2019-04-14T10:12:36.016Z,14.00
2019-04-14T10:15:09.119Z,14.10
2019-04-14T10:17:39.979Z,14.00
2019-04-14T10:20:10.890Z,13.80
2019-04-14T10:22:52.129Z,14.00
2019-04-14T10:25:30.235Z,14.10
2019-04-14T10:28:04.760Z,14.20
2019-04-14T10:30:36.643Z,14.30
2019-04-14T10:33:08.203Z,14.10
2019-04-14T10:35:39.262Z,13.90
2019-04-14T10:38:13.888Z,14.10
2019-04-14T10:40:44.461Z,14.90
2019-04-14T10:43:15.230Z,14.90
2019-04-14T10:45:48.419Z,14.80
2019-04-14T10:48:19.365Z,15.50
2019-04-14T10:50:54.815Z,16.10
2019-04-14T10:53:25.493Z,16.90
2019-04-14T10:55:56.555Z,17.60
2019-04-14T10:58:27.239Z,18.20
2019-04-14T11:00:58.241Z,18.20
2019-04-14T11:03:30.009Z,17.40
2019-04-14T11:06:23.974Z,16.80
2019-04-14T11:08:54.827Z,17.00
2019-04-14T11:11:25.967Z,16.00
2019-04-14T11:13:56.908Z,15.10
2019-04-14T11:16:28.186Z,15.10
2019-04-14T11:18:59.146Z,15.20
2019-04-14T11:21:41.633Z,14.90
2019-04-14T11:24:02.880Z,14.60
2019-04-14T11:26:34.061Z,14.60
2019-04-14T11:29:05.123Z,14.60
2019-04-14T11:31:53.055Z,14.40
2019-04-14T11:34:28.355Z,14.30
2019-04-14T11:37:17.087Z,14.30
2019-04-14T11:39:54.777Z,14.50
2019-04-14T11:42:26.463Z,14.80
2019-04-14T11:44:57.495Z,15.20
2019-04-14T11:47:31.973Z,15.30
2019-04-14T11:50:02.553Z,14.80
2019-04-14T11:52:35.671Z,14.90
2019-04-14T11:55:08.680Z,14.60
2019-04-14T11:57:40.093Z,14.40
2019-04-14T12:00:39.191Z,14.10
2019-04-14T12:03:21.796Z,14.10
2019-04-14T12:06:10.060Z,13.50
2019-04-14T12:09:00.025Z,13.10
2019-04-14T12:11:31.478Z,12.90
2019-04-14T12:14:02.736Z,12.90
2019-04-14T12:16:33.761Z,13.10
2019-04-14T12:19:05.158Z,13.20
2019-04-14T12:21:36.063Z,13.40
2019-04-14T12:24:07.346Z,13.90
2019-04-14T12:26:39.943Z,14.10
2019-04-14T12:29:11.807Z,13.90
2019-04-14T12:31:44.110Z,13.80
2019-04-14T12:34:18.163Z,13.50
2019-04-14T12:36:48.363Z,13.00
2019-04-14T12:39:23.719Z,12.90
2019-04-14T12:42:20.660Z,13.10
2019-04-14T12:45:00.592Z,13.40
2019-04-14T12:47:47.752Z,14.00
2019-04-14T12:50:40.208Z,14.10
2019-04-14T12:53:12.230Z,14.00
2019-04-14T12:55:43.226Z,14.10
2019-04-14T12:58:16.756Z,14.30
2019-04-14T13:01:04.199Z,14.40
2019-04-14T13:03:37.674Z,14.70
2019-04-14T13:06:11.666Z,14.30
2019-04-14T13:08:42.925Z,14.10
2019-04-14T13:11:13.915Z,14.60
2019-04-14T13:13:44.886Z,14.10
2019-04-14T13:16:16.307Z,14.00
2019-04-14T13:18:52.894Z,13.90
2019-04-14T13:21:25.705Z,13.60
2019-04-14T13:23:57.068Z,13.40
2019-04-14T13:26:30.674Z,13.20
2019-04-14T13:29:01.910Z,13.30
2019-04-14T13:31:36.431Z,13.50
2019-04-14T13:34:07.992Z,13.80
2019-04-14T13:36:39.281Z,13.90
2019-04-14T13:39:12.697Z,13.90
2019-04-14T13:41:44.290Z,14.10
2019-04-14T13:44:18.661Z,14.20
2019-04-14T13:46:50.179Z,14.20
2019-04-14T13:49:21.133Z,13.70
2019-04-14T13:51:52.571Z,13.20
2019-04-14T13:54:23.656Z,12.90
2019-04-14T13:56:55.367Z,12.70
2019-04-14T13:59:25.981Z,12.80
2019-04-14T14:01:57.312Z,13.10
2019-04-14T14:04:29.282Z,12.90
2019-04-14T14:07:01.093Z,13.20
2019-04-14T14:09:31.790Z,13.50
2019-04-14T14:12:21.342Z,13.60
2019-04-14T14:15:11.595Z,13.60
2019-04-14T14:17:52.896Z,13.50
2019-04-14T14:20:40.926Z,13.40
2019-04-14T14:23:27.922Z,13.20
2019-04-14T14:26:05.818Z,13.20
2019-04-14T14:28:38.700Z,13.20
2019-04-14T14:31:10.264Z,13.10
2019-04-14T14:33:45.521Z,13.00
2019-04-14T14:36:16.985Z,13.00
2019-04-14T14:38:48.623Z,12.90
2019-04-14T14:41:19.196Z,12.90
2019-04-14T14:43:50.249Z,12.80
2019-04-14T14:46:46.604Z,12.30
2019-04-14T14:49:29.129Z,12.50
2019-04-14T14:52:06.933Z,12.40
2019-04-14T14:54:38.045Z,12.20
2019-04-14T14:57:09.397Z,12.20
2019-04-14T14:59:40.348Z,12.20
2019-04-14T15:02:12.436Z,12.20
2019-04-14T15:04:43.495Z,12.20
2019-04-14T15:07:14.864Z,12.10
2019-04-14T15:09:48.974Z,12.10
2019-04-14T15:12:20.260Z,12.10
2019-04-14T15:14:51.263Z,12.00
2019-04-14T15:17:22.568Z,12.00
2019-04-14T15:19:53.552Z,12.00
2019-04-14T15:22:24.489Z,12.00
2019-04-14T15:24:55.323Z,11.90
2019-04-14T15:27:28.275Z,11.90
2019-04-14T15:29:59.578Z,11.80
2019-04-14T15:32:32.610Z,11.40
2019-04-14T15:35:03.673Z,11.70
2019-04-14T15:37:35.094Z,11.70
2019-04-14T15:40:06.916Z,11.70
2019-04-14T15:42:39.446Z,11.70
2019-04-14T15:45:15.946Z,11.60
2019-04-14T15:47:48.681Z,11.70
2019-04-14T15:50:19.499Z,11.60
2019-04-14T15:52:51.264Z,11.60
2019-04-14T15:55:24.141Z,11.60
2019-04-14T15:58:17.155Z,11.60
2019-04-14T16:01:05.844Z,11.70
2019-04-14T16:03:41.454Z,11.70
2019-04-14T16:06:23.941Z,11.70
2019-04-14T16:09:16.919Z,11.70
2019-04-14T16:12:05.482Z,11.80
2019-04-14T16:14:55.158Z,11.80
2019-04-14T16:17:59.019Z,11.90
2019-04-14T16:20:31.860Z,11.80
2019-04-14T16:23:03.101Z,11.70
2019-04-14T16:25:46.071Z,11.50
2019-04-14T16:28:24.803Z,11.50
2019-04-14T16:31:13.362Z,11.40
2019-04-14T16:34:05.829Z,11.30
2019-04-14T16:36:37.139Z,11.30
2019-04-14T16:39:08.752Z,11.30
2019-04-14T16:41:40.140Z,11.30
2019-04-14T16:44:11.559Z,11.30
2019-04-14T16:46:45.315Z,11.40
2019-04-14T16:49:17.830Z,11.50
2019-04-14T16:51:52.841Z,11.40
2019-04-14T16:54:44.176Z,11.50
2019-04-14T16:57:33.146Z,11.50
2019-04-14T17:00:06.022Z,11.50
2019-04-14T17:02:37.295Z,11.50
2019-04-14T17:05:10.553Z,11.50
2019-04-14T17:07:43.542Z,11.50
2019-04-14T17:10:20.619Z,11.50
2019-04-14T17:12:51.624Z,11.50
2019-04-14T17:15:53.443Z,11.50
2019-04-14T17:18:39.351Z,11.50
2019-04-14T17:21:35.236Z,11.50
2019-04-14T17:24:29.006Z,11.50
2019-04-14T17:27:19.051Z,11.50
2019-04-14T17:29:57.943Z,11.50
2019-04-14T17:32:46.887Z,11.50
2019-04-14T17:35:35.720Z,11.50
2019-04-14T17:38:19.099Z,11.50
2019-04-14T17:41:02.391Z,11.40
2019-04-14T17:43:36.889Z,11.40
2019-04-14T17:46:39.619Z,11.40
2019-04-14T17:49:28.253Z,11.40
2019-04-14T17:52:16.599Z,11.30
2019-04-14T17:55:12.326Z,11.20
2019-04-14T17:57:57.371Z,11.20
2019-04-14T18:01:06.007Z,11.10
2019-04-14T18:03:42.951Z,11.10
2019-04-14T18:06:26.529Z,11.10
2019-04-14T18:09:15.735Z,11.10
2019-04-14T18:12:24.129Z,11.20
2019-04-14T18:15:23.606Z,11.20
2019-04-14T18:18:23.945Z,11.20
2019-04-14T18:21:00.535Z,11.20
2019-04-14T18:23:31.915Z,11.30
2019-04-14T18:26:02.948Z,11.40
2019-04-14T18:28:59.618Z,11.40
2019-04-14T18:31:40.876Z,11.30
2019-04-14T18:34:30.413Z,11.40
2019-04-14T18:37:22.602Z,11.40
2019-04-14T18:40:10.294Z,11.30
2019-04-14T18:43:21.814Z,11.30
2019-04-14T18:46:07.714Z,11.30
2019-04-14T18:48:49.458Z,11.40
2019-04-14T18:51:24.536Z,11.40
2019-04-14T18:54:03.028Z,11.40
2019-04-14T18:56:59.085Z,11.50
2019-04-14T18:59:41.934Z,11.40
2019-04-14T19:02:15.052Z,11.40
2019-04-14T19:04:46.028Z,11.40
2019-04-14T19:07:19.073Z,11.30
2019-04-14T19:09:50.379Z,11.20
2019-04-14T19:12:36.720Z,11.30
2019-04-14T19:15:26.898Z,11.30
2019-04-14T19:18:25.590Z,11.30
2019-04-14T19:20:58.295Z,11.20
2019-04-14T19:23:29.458Z,11.30
2019-04-14T19:26:00.611Z,11.30
2019-04-14T19:28:33.158Z,11.40
2019-04-14T19:31:04.240Z,11.40
2019-04-14T19:33:34.935Z,11.40
2019-04-14T19:36:05.928Z,11.40
2019-04-14T19:38:40.386Z,11.30
2019-04-14T19:41:11.577Z,11.20
2019-04-14T19:43:43.260Z,11.30
2019-04-14T19:46:14.730Z,11.30
2019-04-14T19:48:45.674Z,11.30
2019-04-14T19:51:19.538Z,11.40
2019-04-14T19:53:50.698Z,11.30
2019-04-14T19:56:21.983Z,11.30
2019-04-14T19:58:53.593Z,11.40
2019-04-14T20:01:24.896Z,11.50
2019-04-14T20:03:56.210Z,11.50
2019-04-14T20:06:28.167Z,11.40
2019-04-14T20:08:59.046Z,11.40
2019-04-14T20:11:30.226Z,11.50
2019-04-14T20:14:01.290Z,11.30
2019-04-14T20:16:54.732Z,11.30
2019-04-14T20:19:33.629Z,11.30
2019-04-14T20:22:29.568Z,11.20
2019-04-14T20:25:33.871Z,11.10
2019-04-14T20:28:25.553Z,11.10
2019-04-14T20:31:16.276Z,11.10
2019-04-14T20:33:47.070Z,11.10
2019-04-14T20:36:20.369Z,10.90
2019-04-14T20:38:51.868Z,10.90
2019-04-14T20:41:22.822Z,11.10
2019-04-14T20:43:54.321Z,11.10
2019-04-14T20:46:25.641Z,11.10
2019-04-14T20:48:56.914Z,11.20
2019-04-14T20:51:28.266Z,11.30
2019-04-14T20:53:59.178Z,11.20
2019-04-14T20:56:30.941Z,11.10
2019-04-14T20:59:01.522Z,11.20
2019-04-14T21:01:35.179Z,11.20
2019-04-14T21:04:36.019Z,11.20
2019-04-14T21:07:36.808Z,11.30
2019-04-14T21:10:16.597Z,11.40
2019-04-14T21:12:58.945Z,11.50
2019-04-14T21:15:46.930Z,11.50
2019-04-14T21:18:34.936Z,11.50
2019-04-14T21:21:27.589Z,11.50
2019-04-14T21:24:23.667Z,11.50
2019-04-14T21:26:59.540Z,11.50
2019-04-14T21:29:46.884Z,11.20
2019-04-14T21:32:31.273Z,11.20
2019-04-14T21:35:23.364Z,11.20
2019-04-14T21:37:59.766Z,11.20
2019-04-14T21:40:56.379Z,11.30
2019-04-14T21:43:27.515Z,11.30
2019-04-14T21:45:58.306Z,11.20
2019-04-14T21:48:29.196Z,11.20
2019-04-14T21:50:59.741Z,11.20
2019-04-14T21:53:31.235Z,11.20
2019-04-14T21:56:12.894Z,11.30
2019-04-14T21:58:51.603Z,11.30
2019-04-14T22:01:52.941Z,11.50
2019-04-14T22:04:46.373Z,11.20
2019-04-14T22:07:54.144Z,11.20
2019-04-14T22:10:32.768Z,11.10
2019-04-14T22:13:05.289Z,11.20
2019-04-14T22:15:36.531Z,11.20
2019-04-14T22:18:09.508Z,11.10
2019-04-14T22:20:42.333Z,11.10
2019-04-14T22:23:13.891Z,11.10
2019-04-14T22:25:48.404Z,11.00
2019-04-14T22:28:19.408Z,11.00
2019-04-14T22:30:50.637Z,11.00
2019-04-14T22:33:23.027Z,11.20
2019-04-14T22:35:53.753Z,11.20
2019-04-14T22:38:24.917Z,11.10
2019-04-14T22:40:56.655Z,11.20
2019-04-14T22:43:27.254Z,11.10
2019-04-14T22:45:58.294Z,11.00
2019-04-14T22:48:29.436Z,10.90
2019-04-14T22:51:00.684Z,10.90
2019-04-14T22:53:31.471Z,10.90
2019-04-14T22:56:03.121Z,10.80
2019-04-14T22:58:34.027Z,10.70
2019-04-14T23:01:16.067Z,10.70
2019-04-14T23:04:24.245Z,10.60
2019-04-14T23:07:17.720Z,10.80
2019-04-14T23:09:53.646Z,10.80
2019-04-14T23:12:40.171Z,10.90
2019-04-14T23:15:31.153Z,10.90
2019-04-14T23:18:23.976Z,10.90
2019-04-14T23:21:06.968Z,10.90
2019-04-14T23:23:59.494Z,10.90
2019-04-14T23:26:30.345Z,10.90
2019-04-14T23:29:01.312Z,10.80
2019-04-14T23:31:32.519Z,10.90
2019-04-14T23:34:03.307Z,11.00
2019-04-14T23:36:34.450Z,11.00
2019-04-14T23:39:09.072Z,11.10
2019-04-14T23:41:39.732Z,11.10
2019-04-14T23:44:10.650Z,11.10
2019-04-14T23:46:41.663Z,11.10
2019-04-14T23:49:14.263Z,11.10
2019-04-14T23:51:46.032Z,11.10
2019-04-14T23:54:20.339Z,11.10
2019-04-14T23:56:51.282Z,11.00
2019-04-14T23:59:22.575Z,10.90
